createdAt,value
2019-06-26T00:01:27.872Z,39.60
2019-06-26T00:03:59.782Z,39.35
2019-06-26T00:06:31.785Z,39.36
2019-06-26T00:09:04.201Z,39.63
2019-06-26T00:11:36.226Z,39.87
2019-06-26T00:14:08.193Z,39.64
2019-06-26T00:16:40.204Z,39.50
2019-06-26T00:19:12.119Z,39.77
2019-06-26T00:21:44.187Z,39.99
2019-06-26T00:24:16.357Z,39.97
2019-06-26T00:26:48.315Z,40.74
2019-06-26T00:29:20.489Z,40.02
2019-06-26T00:31:52.552Z,40.21
2019-06-26T00:34:24.608Z,39.97
2019-06-26T00:36:56.674Z,40.06
2019-06-26T00:39:28.775Z,40.18
2019-06-26T00:42:00.703Z,40.35
2019-06-26T00:44:32.651Z,39.70
2019-06-26T00:47:04.409Z,40.77
2019-06-26T00:49:36.390Z,41.08
2019-06-26T00:52:08.355Z,41.97
2019-06-26T00:54:40.411Z,41.36
2019-06-26T00:57:12.480Z,41.47
2019-06-26T00:59:44.503Z,40.96
2019-06-26T01:02:16.461Z,41.45
2019-06-26T01:04:55.901Z,42.04
2019-06-26T01:07:27.789Z,42.76
2019-06-26T01:09:59.606Z,41.70
2019-06-26T01:12:31.596Z,42.90
2019-06-26T01:15:04.223Z,42.60
2019-06-26T01:17:36.271Z,42.45
2019-06-26T01:20:08.460Z,42.52
2019-06-26T01:22:40.444Z,42.94
2019-06-26T01:25:12.844Z,43.28
2019-06-26T01:27:44.943Z,43.65
2019-06-26T01:30:16.690Z,42.28
2019-06-26T01:32:48.655Z,43.09
2019-06-26T01:35:20.699Z,43.22
2019-06-26T01:37:52.862Z,43.08
2019-06-26T01:40:24.848Z,42.58
2019-06-26T01:42:57.047Z,42.26
2019-06-26T01:45:28.855Z,43.20
2019-06-26T01:48:00.719Z,42.98
2019-06-26T01:50:32.606Z,43.09
2019-06-26T01:53:04.640Z,43.54
2019-06-26T01:55:36.546Z,43.40
2019-06-26T01:58:08.579Z,42.96
2019-06-26T02:00:40.500Z,42.63
2019-06-26T02:03:12.397Z,42.76
2019-06-26T02:05:44.264Z,43.72
2019-06-26T02:08:16.247Z,43.59
2019-06-26T02:10:48.380Z,42.51
2019-06-26T02:13:20.338Z,43.48
2019-06-26T02:15:52.260Z,43.91
2019-06-26T02:18:43.816Z,43.27
2019-06-26T02:21:15.817Z,43.06
2019-06-26T02:23:47.665Z,42.82
2019-06-26T02:26:19.501Z,43.30
2019-06-26T02:28:51.577Z,43.76
2019-06-26T02:31:23.683Z,44.10
2019-06-26T02:33:55.552Z,44.63
2019-06-26T02:36:27.408Z,44.09
2019-06-26T02:38:59.228Z,44.54
2019-06-26T02:41:31.475Z,44.36
2019-06-26T02:44:03.323Z,44.31
2019-06-26T02:46:35.352Z,44.83
2019-06-26T02:49:07.135Z,44.08
